Terminal Aerodrome Forecast
Issued by NWS

Home | Current Version | Previous Version | Text Only | Print | Product List | Glossary On
Versions: 1 2 3 4 5 6 7 8 9 10 11 12 13 14 15 16 17 18 19 20 21 22 23
000
FTUS41 KPBZ 041738
TAFDUJ
TAF
KDUJ 041738Z 0418/0518 27011G18KT P6SM SCT050
     FM050000 VRB04KT P6SM BKN040
     FM050300 VRB05KT P6SM VCSH BKN035
     FM050900 25005KT 5SM BR FEW035
     FM051400 30010G17KT P6SM BKN025=

USA.gov is the U.S. government's official web portal to all federal, state and local government web resources and services.